Decoded Metar for WIII (JAKARTA in INDONESIA) (IATA:CGK) | Meteo·Mobile Aviation Weather
aviador You're here:

WIII Decoded Metar

JAKARTA in INDONESIA
Report Time2019-10-19 21:30:00
UTC Time2019-10-19 21:55:58
Flight Rules ifr IFR
WindVRB at 02 kt
Visibility4000 m
Phenomena:Haze
Clouds:Few 020 Hf
Expected CloudBase > 800 ft AGL from Temp-Dew spread
CeilingNone
Temp25°C (ISA +10)
Dew Point23°C (89% RH)
QNH1010 hPa
Density Alt1,660 ft
Elevation26 ft
Report Wrong Elevation
Raw Report
METAR WIII 192130Z VRB02KT 4000 HZ FEW020 25/23 Q1010 NOSIG=

Extra information for WIII:More info

Metar Taf Metar & Taf Last 4 Metars F.Rules Stats Wind Profile Meteogram Temp Stats Airport Information Weather charts Add Link Nearby VenuesMetar ALERT Operation Metar Decoded Social comments